createdAt,value
2022-11-21T00:03:32.888Z,99677.75
2022-11-21T00:08:34.344Z,99674.63
2022-11-21T00:13:35.861Z,99664.34
2022-11-21T00:18:37.699Z,99650.53
2022-11-21T00:23:39.343Z,99640.19
2022-11-21T00:28:41.391Z,99638.19
2022-11-21T00:33:42.853Z,99627.91
2022-11-21T00:38:44.418Z,99639.53
2022-11-21T00:43:45.880Z,99638.59
2022-11-21T00:48:47.402Z,99634.44
2022-11-21T00:53:48.933Z,99650.50
2022-11-21T00:58:50.410Z,99648.19
2022-11-21T01:03:51.850Z,99645.94
2022-11-21T01:08:53.455Z,99638.44
2022-11-21T01:13:54.982Z,99626.75
2022-11-21T01:18:57.189Z,99621.66
2022-11-21T01:24:00.314Z,99630.91
2022-11-21T01:29:01.794Z,99624.06
2022-11-21T01:34:03.375Z,99639.06
2022-11-21T01:39:06.971Z,99635.66
2022-11-21T01:44:26.174Z,99634.72
2022-11-21T01:49:32.557Z,99617.84
2022-11-21T01:54:38.719Z,99617.91
2022-11-21T01:59:49.468Z,99616.44
2022-11-21T02:04:53.427Z,99609.75
2022-11-21T02:09:59.016Z,99606.56
2022-11-21T02:15:01.583Z,99613.38
2022-11-21T02:20:09.193Z,99608.22
2022-11-21T02:25:22.645Z,99610.66
2022-11-21T02:30:24.441Z,99596.28
2022-11-21T02:35:26.250Z,99596.34
2022-11-21T02:40:33.326Z,99608.16
2022-11-21T02:45:39.310Z,99597.09
2022-11-21T02:50:42.703Z,99608.03
2022-11-21T02:55:45.162Z,99595.34
2022-11-21T03:00:46.859Z,99593.50
2022-11-21T03:05:48.650Z,99590.88
2022-11-21T03:10:50.133Z,99592.47
2022-11-21T03:15:52.110Z,99582.22
2022-11-21T03:20:53.575Z,99577.84
2022-11-21T03:25:55.008Z,99573.44
2022-11-21T03:30:56.450Z,99573.31
2022-11-21T03:35:57.950Z,99570.59
2022-11-21T03:41:04.473Z,99567.41
2022-11-21T03:46:05.887Z,99577.38
2022-11-21T03:51:07.331Z,99560.47
2022-11-21T03:56:08.749Z,99565.63
2022-11-21T04:01:10.844Z,99562.28
2022-11-21T04:06:14.825Z,99566.94
2022-11-21T04:11:16.593Z,99563.03
2022-11-21T04:16:18.076Z,99565.56
2022-11-21T04:21:19.548Z,99563.75
2022-11-21T04:26:21.020Z,99569.41
2022-11-21T04:31:22.455Z,99565.28
2022-11-21T04:36:23.886Z,99565.97
2022-11-21T04:41:25.350Z,99568.84
2022-11-21T04:46:26.805Z,99569.03
2022-11-21T04:51:28.338Z,99564.09
2022-11-21T04:56:29.799Z,99565.91
2022-11-21T05:01:31.236Z,99570.66
2022-11-21T05:06:32.691Z,99566.50
2022-11-21T05:11:52.792Z,99576.66
2022-11-21T05:16:54.268Z,99579.63
2022-11-21T05:21:55.774Z,99579.16
2022-11-21T05:26:57.204Z,99558.75
2022-11-21T05:31:58.664Z,99566.44
2022-11-21T05:37:00.196Z,99571.69
2022-11-21T05:42:03.355Z,99574.34
2022-11-21T05:47:04.945Z,99568.41
2022-11-21T05:52:06.445Z,99573.00
2022-11-21T05:57:07.858Z,99572.09
2022-11-21T06:02:27.788Z,99570.44
2022-11-21T06:07:29.234Z,99569.88
2022-11-21T06:12:31.410Z,99567.63
2022-11-21T06:17:32.893Z,99572.06
2022-11-21T06:22:34.339Z,99574.69
2022-11-21T06:27:35.776Z,99580.69
2022-11-21T06:32:38.272Z,99571.19
2022-11-21T06:37:39.788Z,99571.78
2022-11-21T06:42:41.254Z,99580.25
2022-11-21T06:47:42.643Z,99585.28
2022-11-21T06:52:44.111Z,99585.03
2022-11-21T06:57:45.512Z,99584.19
2022-11-21T07:02:47.236Z,99579.13
2022-11-21T07:07:48.698Z,99591.41
2022-11-21T07:13:08.864Z,99588.94
2022-11-21T07:18:10.455Z,99586.59
2022-11-21T07:23:12.040Z,99579.34
2022-11-21T07:28:13.436Z,99577.63
2022-11-21T07:33:14.914Z,99576.81
2022-11-21T07:38:18.745Z,99573.19
2022-11-21T07:43:20.207Z,99565.63
2022-11-21T07:48:21.648Z,99572.28
2022-11-21T07:53:24.268Z,99577.03
2022-11-21T07:58:25.736Z,99576.38
2022-11-21T08:03:27.166Z,99560.97
2022-11-21T08:08:28.823Z,99548.69
2022-11-21T08:13:30.295Z,99554.53
2022-11-21T08:18:31.987Z,99538.59
2022-11-21T08:23:33.457Z,99540.66
2022-11-21T08:28:34.894Z,99534.84
2022-11-21T08:33:36.530Z,99545.69
2022-11-21T08:38:37.956Z,99532.88
2022-11-21T08:43:39.446Z,99534.03
2022-11-21T08:48:40.881Z,99533.13
2022-11-21T08:53:42.713Z,99532.75
2022-11-21T08:58:44.165Z,99532.75
2022-11-21T09:03:45.635Z,99522.59
2022-11-21T09:08:47.111Z,99534.25
2022-11-21T09:14:08.567Z,99529.75
2022-11-21T09:19:10.106Z,99527.03
2022-11-21T09:24:11.682Z,99523.16
2022-11-21T09:29:14.978Z,99517.72
2022-11-21T09:34:16.423Z,99495.06
2022-11-21T09:39:17.946Z,99490.00
2022-11-21T09:45:00.877Z,99478.53
2022-11-21T09:50:34.503Z,99476.31
2022-11-21T09:55:35.881Z,99470.97
2022-11-21T10:00:37.377Z,99453.66
2022-11-21T10:05:47.009Z,99443.94
2022-11-21T10:10:59.224Z,99442.97
2022-11-21T10:16:11.743Z,99428.25
2022-11-21T10:21:15.990Z,99419.44
2022-11-21T10:26:36.327Z,99403.31
2022-11-21T10:31:40.856Z,99402.66
2022-11-21T10:36:48.622Z,99391.69
2022-11-21T10:42:11.021Z,99381.91
2022-11-21T10:47:31.603Z,99363.50
2022-11-21T10:52:34.903Z,99353.94
2022-11-21T10:57:45.480Z,99348.13
2022-11-21T11:02:55.978Z,99329.94
2022-11-21T11:08:11.576Z,99312.81
2022-11-21T11:13:49.904Z,99306.03
2022-11-21T11:19:00.290Z,99285.59
2022-11-21T11:24:10.604Z,99274.25
2022-11-21T11:29:21.469Z,99269.72
2022-11-21T11:34:25.666Z,99253.97
2022-11-21T11:39:48.374Z,99247.66
2022-11-21T11:45:21.148Z,99249.34
2022-11-21T11:50:29.527Z,99242.63
2022-11-21T11:55:42.022Z,99220.09
2022-11-21T12:00:49.978Z,99220.53
2022-11-21T12:06:09.434Z,99205.03
2022-11-21T12:11:42.409Z,99196.06
2022-11-21T12:16:44.100Z,99185.69
2022-11-21T12:21:46.077Z,99172.34
2022-11-21T12:27:08.579Z,99157.25
2022-11-21T12:32:36.579Z,99153.50
2022-11-21T12:37:56.928Z,99148.84
2022-11-21T12:43:37.157Z,99134.16
2022-11-21T12:49:15.883Z,99119.47
2022-11-21T12:54:45.351Z,99109.41
2022-11-21T12:59:52.802Z,99095.84
2022-11-21T13:04:57.352Z,99082.78
2022-11-21T13:10:01.649Z,99084.16
2022-11-21T13:15:14.827Z,99079.44
2022-11-21T13:20:16.437Z,99080.06
2022-11-21T13:25:30.236Z,99061.88
2022-11-21T13:30:31.865Z,99058.41
2022-11-21T13:35:51.604Z,99053.22
2022-11-21T13:41:11.610Z,99048.03
2022-11-21T13:46:51.716Z,99047.78
2022-11-21T13:51:54.568Z,99036.75
2022-11-21T13:57:20.264Z,99027.78
2022-11-21T14:02:32.474Z,99018.31
2022-11-21T14:07:36.987Z,99001.38
2022-11-21T14:12:44.889Z,98987.78
2022-11-21T14:17:59.643Z,98964.13
2022-11-21T14:23:17.153Z,98951.03
2022-11-21T14:28:23.388Z,98940.84
2022-11-21T14:33:32.433Z,98926.81
2022-11-21T14:38:47.719Z,98918.03
2022-11-21T14:43:58.210Z,98905.16
2022-11-21T14:49:15.701Z,98869.78
2022-11-21T14:54:26.842Z,98863.75
2022-11-21T14:59:38.620Z,98851.38
2022-11-21T15:04:42.083Z,98844.59
2022-11-21T15:10:28.769Z,98822.47
2022-11-21T15:15:32.125Z,98807.34
2022-11-21T15:20:33.784Z,98784.38
2022-11-21T15:25:47.295Z,98764.59
2022-11-21T15:31:16.123Z,98753.28
2022-11-21T15:36:17.625Z,98745.38
2022-11-21T15:41:19.163Z,98735.84
2022-11-21T15:46:32.049Z,98728.81
2022-11-21T15:56:58.269Z,98693.34
2022-11-21T15:57:15.121Z,98714.81
2022-11-21T16:01:59.672Z,98680.88
2022-11-21T16:07:01.257Z,98682.81
2022-11-21T16:12:02.931Z,98655.28
2022-11-21T16:17:08.165Z,98661.50
2022-11-21T16:22:09.657Z,98635.94
2022-11-21T16:27:11.129Z,98631.56
2022-11-21T16:32:12.584Z,98605.75
2022-11-21T16:37:14.471Z,98600.63
2022-11-21T16:42:15.903Z,98598.97
2022-11-21T16:47:17.329Z,98599.97
2022-11-21T16:52:18.800Z,98573.34
2022-11-21T16:57:20.184Z,98570.97
2022-11-21T17:02:21.572Z,98603.22
2022-11-21T17:07:24.954Z,98595.13
2022-11-21T17:12:26.762Z,98591.00
2022-11-21T17:17:28.239Z,98574.38
2022-11-21T17:22:32.624Z,98572.00
2022-11-21T17:27:34.118Z,98560.44
2022-11-21T17:32:35.706Z,98559.56
2022-11-21T17:37:37.543Z,98547.50
2022-11-21T17:42:41.154Z,98520.22
2022-11-21T17:47:43.955Z,98504.88
2022-11-21T17:52:47.005Z,98511.50
2022-11-21T17:57:48.529Z,98534.22
2022-11-21T18:02:50.051Z,98529.16
2022-11-21T18:07:51.628Z,98522.25
2022-11-21T18:12:53.075Z,98516.25
2022-11-21T18:17:54.526Z,98508.66
2022-11-21T18:22:55.959Z,98515.25
2022-11-21T18:27:57.360Z,98515.78
2022-11-21T18:32:59.001Z,98519.38
2022-11-21T18:38:00.401Z,98521.09
2022-11-21T18:43:01.829Z,98518.81
2022-11-21T18:48:04.332Z,98518.47
2022-11-21T18:53:05.829Z,98512.34
2022-11-21T18:58:07.233Z,98501.34
2022-11-21T19:03:08.661Z,98497.06
2022-11-21T19:08:10.093Z,98498.78
2022-11-21T19:13:11.502Z,98496.72
2022-11-21T19:18:13.347Z,98489.16
2022-11-21T19:23:14.799Z,98480.78
2022-11-21T19:28:16.184Z,98473.44
2022-11-21T19:33:17.724Z,98481.56
2022-11-21T19:38:19.305Z,98487.44
2022-11-21T19:43:20.702Z,98498.31
2022-11-21T19:48:22.093Z,98493.84
2022-11-21T19:53:24.340Z,98493.50
2022-11-21T19:58:27.500Z,98507.91
2022-11-21T20:03:28.946Z,98513.16
2022-11-21T20:08:30.408Z,98516.41
2022-11-21T20:13:32.995Z,98498.09
2022-11-21T20:18:35.872Z,98503.22
2022-11-21T20:23:37.695Z,98495.47
2022-11-21T20:28:39.904Z,98492.94
2022-11-21T20:33:43.749Z,98494.13
2022-11-21T20:38:54.018Z,98491.19
2022-11-21T20:49:18.755Z,98470.41
2022-11-21T20:54:20.236Z,98476.22
2022-11-21T20:59:21.651Z,98469.38
2022-11-21T21:04:23.122Z,98458.97
2022-11-21T21:09:24.566Z,98453.97
2022-11-21T21:14:26.021Z,98449.09
2022-11-21T21:19:28.094Z,98436.56
2022-11-21T21:24:29.727Z,98433.47
2022-11-21T21:29:31.606Z,98437.53
2022-11-21T21:34:33.444Z,98442.13
2022-11-21T21:39:35.097Z,98438.97
2022-11-21T21:44:37.088Z,98430.81
2022-11-21T21:49:38.758Z,98435.50
2022-11-21T21:54:40.158Z,98444.00
2022-11-21T21:59:41.620Z,98431.25
2022-11-21T22:04:44.363Z,98431.97
2022-11-21T22:09:48.497Z,98437.66
2022-11-21T22:14:49.950Z,98423.91
2022-11-21T22:19:51.632Z,98422.59
2022-11-21T22:24:53.091Z,98421.84
2022-11-21T22:29:54.523Z,98432.31
2022-11-21T22:34:55.937Z,98419.38
2022-11-21T22:39:57.532Z,98416.41
2022-11-21T22:44:58.943Z,98410.94
2022-11-21T22:50:00.556Z,98410.31
2022-11-21T22:55:02.052Z,98392.66
2022-11-21T23:00:06.933Z,98408.84
2022-11-21T23:05:08.469Z,98407.78
2022-11-21T23:10:10.215Z,98416.63
2022-11-21T23:15:11.623Z,98411.31
2022-11-21T23:20:13.026Z,98418.94
2022-11-21T23:25:17.224Z,98425.53
2022-11-21T23:30:18.684Z,98422.03
2022-11-21T23:35:20.092Z,98408.50
2022-11-21T23:40:21.506Z,98399.38
2022-11-21T23:45:23.014Z,98391.50
2022-11-21T23:50:24.855Z,98382.53
2022-11-21T23:55:26.260Z,98369.63
